sensor_id;sensor_type;location;lat;lon;timestamp;pressure;altitude;pressure_sealevel;temperature;humidity
64243;BME280;50573;51.512;5.386;2023-05-07T00:06:40;78062.16;;;14.82;100.00
64243;BME280;50573;51.512;5.386;2023-05-07T00:16:45;78068.47;;;14.88;100.00
64243;BME280;50573;51.512;5.386;2023-05-07T00:26:48;78073.88;;;14.97;100.00
64243;BME280;50573;51.512;5.386;2023-05-07T00:36:53;78077.03;;;14.95;100.00
64243;BME280;50573;51.512;5.386;2023-05-07T00:46:57;78063.44;;;14.86;100.00
64243;BME280;50573;51.512;5.386;2023-05-07T00:57:02;78077.66;;;14.86;100.00
64243;BME280;50573;51.512;5.386;2023-05-07T01:07:05;78073.72;;;14.95;100.00
64243;BME280;50573;51.512;5.386;2023-05-07T01:17:10;78075.00;;;14.98;100.00
64243;BME280;50573;51.512;5.386;2023-05-07T01:27:15;78066.00;;;14.93;100.00
64243;BME280;50573;51.512;5.386;2023-05-07T01:37:18;78061.59;;;14.82;100.00
64243;BME280;50573;51.512;5.386;2023-05-07T01:47:22;78052.59;;;14.76;100.00
64243;BME280;50573;51.512;5.386;2023-05-07T01:57:26;78052.00;;;14.76;100.00
64243;BME280;50573;51.512;5.386;2023-05-07T02:07:31;78041.00;;;14.64;100.00
64243;BME280;50573;51.512;5.386;2023-05-07T02:17:34;78032.56;;;14.59;100.00
64243;BME280;50573;51.512;5.386;2023-05-07T02:27:40;78044.28;;;14.64;100.00
64243;BME280;50573;51.512;5.386;2023-05-07T02:37:44;78034.84;;;14.61;100.00
64243;BME280;50573;51.512;5.386;2023-05-07T02:47:49;78036.13;;;14.64;100.00
64243;BME280;50573;51.512;5.386;2023-05-07T02:57:52;78042.44;;;14.70;100.00
64243;BME280;50573;51.512;5.386;2023-05-07T03:07:57;78044.44;;;14.67;100.00
64243;BME280;50573;51.512;5.386;2023-05-07T03:18:00;78051.44;;;14.75;100.00
64243;BME280;50573;51.512;5.386;2023-05-07T03:28:05;78049.28;;;14.76;100.00
64243;BME280;50573;51.512;5.386;2023-05-07T03:38:15;78063.44;;;14.86;100.00
64243;BME280;50573;51.512;5.386;2023-05-07T03:48:19;78064.16;;;14.89;100.00
64243;BME280;50573;51.512;5.386;2023-05-07T03:58:24;78076.34;;;14.92;100.00
64243;BME280;50573;51.512;5.386;2023-05-07T04:08:33;78067.31;;;14.87;100.00
64243;BME280;50573;51.512;5.386;2023-05-07T04:18:37;78060.16;;;14.85;100.00
64243;BME280;50573;51.512;5.386;2023-05-07T04:28:42;78049.28;;;14.76;100.00
64243;BME280;50573;51.512;5.386;2023-05-07T04:38:46;78056.44;;;14.77;100.00
64243;BME280;50573;51.512;5.386;2023-05-07T04:48:53;78047.44;;;14.72;100.00
64243;BME280;50573;51.512;5.386;2023-05-07T04:58:56;78056.00;;;14.79;100.00
64243;BME280;50573;51.512;5.386;2023-05-07T05:09:01;78063.00;;;14.88;100.00
64243;BME280;50573;51.512;5.386;2023-05-07T05:19:05;78100.03;;;15.18;100.00
64243;BME280;50573;51.512;5.386;2023-05-07T05:29:13;78123.38;;;15.36;100.00
64243;BME280;50573;51.512;5.386;2023-05-07T05:39:17;78139.50;;;15.62;100.00
64243;BME280;50573;51.512;5.386;2023-05-07T05:49:21;78157.97;;;15.71;100.00
64243;BME280;50573;51.512;5.386;2023-05-07T05:59:24;78180.72;;;15.89;100.00
64243;BME280;50573;51.512;5.386;2023-05-07T06:09:29;78189.44;;;15.99;100.00
64243;BME280;50573;51.512;5.386;2023-05-07T06:19:32;78221.34;;;16.24;100.00
64243;BME280;50573;51.512;5.386;2023-05-07T06:29:37;78233.97;;;16.35;100.00
64243;BME280;50573;51.512;5.386;2023-05-07T06:39:47;78271.75;;;16.69;100.00
64243;BME280;50573;51.512;5.386;2023-05-07T06:49:52;78297.66;;;16.94;100.00
64243;BME280;50573;51.512;5.386;2023-05-07T06:59:58;78294.66;;;16.89;100.00
64243;BME280;50573;51.512;5.386;2023-05-07T07:10:05;78288.50;;;16.86;100.00
64243;BME280;50573;51.512;5.386;2023-05-07T07:20:09;78278.75;;;16.77;100.00
64243;BME280;50573;51.512;5.386;2023-05-07T07:30:16;78297.34;;;16.98;100.00
64243;BME280;50573;51.512;5.386;2023-05-07T07:40:22;78337.16;;;17.28;100.00
64243;BME280;50573;51.512;5.386;2023-05-07T07:50:28;78394.91;;;17.76;100.00
64243;BME280;50573;51.512;5.386;2023-05-07T08:00:47;78423.66;;;18.04;100.00
64243;BME280;50573;51.512;5.386;2023-05-07T08:10:52;78459.16;;;18.35;100.00
64243;BME280;50573;51.512;5.386;2023-05-07T08:21:03;78502.59;;;18.71;100.00
64243;BME280;50573;51.512;5.386;2023-05-07T08:31:08;78552.59;;;19.17;97.17
64243;BME280;50573;51.512;5.386;2023-05-07T08:41:14;78584.00;;;19.42;94.81
64243;BME280;50573;51.512;5.386;2023-05-07T08:51:22;78571.06;;;19.36;96.17
64243;BME280;50573;51.512;5.386;2023-05-07T09:01:26;78617.41;;;19.74;94.49
64243;BME280;50573;51.512;5.386;2023-05-07T09:11:32;78637.59;;;19.94;90.23
64243;BME280;50573;51.512;5.386;2023-05-07T09:21:36;78649.03;;;20.04;90.96
64243;BME280;50573;51.512;5.386;2023-05-07T09:31:46;78695.06;;;20.46;89.85
64243;BME280;50573;51.512;5.386;2023-05-07T09:41:52;78702.63;;;20.43;89.06
64243;BME280;50573;51.512;5.386;2023-05-07T09:52:06;78723.50;;;20.67;89.82
64243;BME280;50573;51.512;5.386;2023-05-07T10:02:14;78734.41;;;20.76;88.82
64243;BME280;50573;51.512;5.386;2023-05-07T10:12:24;78770.56;;;21.08;86.41
64243;BME280;50573;51.512;5.386;2023-05-07T10:22:28;78789.50;;;21.24;84.82
64243;BME280;50573;51.512;5.386;2023-05-07T10:32:38;78803.03;;;21.43;82.47
64243;BME280;50573;51.512;5.386;2023-05-07T10:42:54;78864.91;;;21.95;80.58
64243;BME280;50573;51.512;5.386;2023-05-07T10:53:25;78896.47;;;22.23;79.56
64243;BME280;50573;51.512;5.386;2023-05-07T11:04:15;78947.00;;;22.67;75.63
64243;BME280;50573;51.512;5.386;2023-05-07T11:14:47;79003.06;;;23.11;73.53
64243;BME280;50573;51.512;5.386;2023-05-07T11:25:06;79001.66;;;23.17;71.35
64243;BME280;50573;51.512;5.386;2023-05-07T11:35:12;78995.25;;;23.09;71.16
64243;BME280;50573;51.512;5.386;2023-05-07T11:45:23;78970.44;;;22.85;74.06
64243;BME280;50573;51.512;5.386;2023-05-07T11:55:28;78974.47;;;22.88;70.42
64243;BME280;50573;51.512;5.386;2023-05-07T12:05:32;79008.00;;;23.22;70.91
64243;BME280;50573;51.512;5.386;2023-05-07T12:15:36;78958.03;;;22.79;69.43
64243;BME280;50573;51.512;5.386;2023-05-07T12:25:40;78895.34;;;22.22;70.73
64243;BME280;50573;51.512;5.386;2023-05-07T12:35:49;78818.44;;;21.54;74.00
64243;BME280;50573;51.512;5.386;2023-05-07T12:45:54;78526.81;;;18.94;93.96
64243;BME280;50573;51.512;5.386;2023-05-07T12:55:59;78318.25;;;17.12;100.00
64243;BME280;50573;51.512;5.386;2023-05-07T13:06:04;78315.72;;;17.05;100.00
64243;BME280;50573;51.512;5.386;2023-05-07T13:16:10;78300.66;;;16.99;100.00
64243;BME280;50573;51.512;5.386;2023-05-07T13:26:13;78272.44;;;16.72;100.00
64243;BME280;50573;51.512;5.386;2023-05-07T13:36:28;78301.53;;;16.95;100.00
64243;BME280;50573;51.512;5.386;2023-05-07T13:46:34;78287.34;;;16.85;100.00
64243;BME280;50573;51.512;5.386;2023-05-07T13:56:39;78311.13;;;17.01;100.00
64243;BME280;50573;51.512;5.386;2023-05-07T14:06:42;78353.19;;;17.42;100.00
64243;BME280;50573;51.512;5.386;2023-05-07T14:16:46;78390.88;;;17.73;100.00
64243;BME280;50573;51.512;5.386;2023-05-07T14:26:51;78417.03;;;18.03;100.00
64243;BME280;50573;51.512;5.386;2023-05-07T14:36:56;78443.81;;;18.24;100.00
64243;BME280;50573;51.512;5.386;2023-05-07T14:46:59;78458.13;;;18.37;100.00
64243;BME280;50573;51.512;5.386;2023-05-07T14:57:04;78458.03;;;18.34;100.00
64243;BME280;50573;51.512;5.386;2023-05-07T15:07:08;78479.25;;;18.53;100.00
64243;BME280;50573;51.512;5.386;2023-05-07T15:17:13;78467.22;;;18.42;100.00
64243;BME280;50573;51.512;5.386;2023-05-07T15:27:17;78467.22;;;18.42;100.00
64243;BME280;50573;51.512;5.386;2023-05-07T15:37:22;78496.75;;;18.63;100.00
64243;BME280;50573;51.512;5.386;2023-05-07T15:47:25;78496.56;;;18.70;100.00
64243;BME280;50573;51.512;5.386;2023-05-07T15:57:29;78512.16;;;18.86;100.00
64243;BME280;50573;51.512;5.386;2023-05-07T16:07:33;78535.41;;;19.02;100.00
64243;BME280;50573;51.512;5.386;2023-05-07T16:17:38;78552.03;;;19.16;100.00
64243;BME280;50573;51.512;5.386;2023-05-07T16:27:41;78560.63;;;19.24;100.00
64243;BME280;50573;51.512;5.386;2023-05-07T16:37:46;78524.06;;;18.94;100.00
64243;BME280;50573;51.512;5.386;2023-05-07T16:47:49;78517.41;;;18.93;100.00
64243;BME280;50573;51.512;5.386;2023-05-07T16:57:53;78517.88;;;18.91;100.00
64243;BME280;50573;51.512;5.386;2023-05-07T17:07:56;78495.16;;;18.64;100.00
64243;BME280;50573;51.512;5.386;2023-05-07T17:18:01;78445.44;;;18.23;100.00
64243;BME280;50573;51.512;5.386;2023-05-07T17:28:04;78413.47;;;17.98;100.00
64243;BME280;50573;51.512;5.386;2023-05-07T17:38:12;78392.41;;;17.81;100.00
64243;BME280;50573;51.512;5.386;2023-05-07T17:48:21;78394.00;;;17.80;100.00
64243;BME280;50573;51.512;5.386;2023-05-07T17:58:29;78402.78;;;17.81;100.00
64243;BME280;50573;51.512;5.386;2023-05-07T18:08:35;78386.44;;;17.71;100.00
64243;BME280;50573;51.512;5.386;2023-05-07T18:18:50;78370.84;;;17.55;100.00
64243;BME280;50573;51.512;5.386;2023-05-07T18:28:53;78355.47;;;17.44;100.00
64243;BME280;50573;51.512;5.386;2023-05-07T18:38:57;78342.88;;;17.33;100.00
64243;BME280;50573;51.512;5.386;2023-05-07T18:49:02;78327.97;;;17.20;100.00
64243;BME280;50573;51.512;5.386;2023-05-07T18:59:06;78312.66;;;17.09;100.00
64243;BME280;50573;51.512;5.386;2023-05-07T19:09:09;78309.09;;;17.04;100.00
64243;BME280;50573;51.512;5.386;2023-05-07T19:19:14;78299.09;;;16.90;100.00
64243;BME280;50573;51.512;5.386;2023-05-07T19:29:17;78276.97;;;16.85;100.00
64243;BME280;50573;51.512;5.386;2023-05-07T19:39:21;78290.06;;;16.85;100.00
64243;BME280;50573;51.512;5.386;2023-05-07T19:49:25;78281.34;;;16.75;100.00
64243;BME280;50573;51.512;5.386;2023-05-07T19:59:29;78261.03;;;16.62;100.00
64243;BME280;50573;51.512;5.386;2023-05-07T20:09:33;78263.28;;;16.63;100.00
64243;BME280;50573;51.512;5.386;2023-05-07T20:19:37;78258.72;;;16.59;100.00
64243;BME280;50573;51.512;5.386;2023-05-07T20:29:40;78266.91;;;16.59;100.00
64243;BME280;50573;51.512;5.386;2023-05-07T20:39:45;78252.84;;;16.52;100.00
64243;BME280;50573;51.512;5.386;2023-05-07T20:49:48;78230.78;;;16.37;100.00
64243;BME280;50573;51.512;5.386;2023-05-07T20:59:53;78218.19;;;16.26;100.00
64243;BME280;50573;51.512;5.386;2023-05-07T21:09:55;78208.78;;;16.13;100.00
64243;BME280;50573;51.512;5.386;2023-05-07T21:20:00;78214.50;;;16.18;100.00
64243;BME280;50573;51.512;5.386;2023-05-07T21:30:05;78206.03;;;16.13;100.00
64243;BME280;50573;51.512;5.386;2023-05-07T21:40:11;78208.22;;;16.13;100.00
64243;BME280;50573;51.512;5.386;2023-05-07T21:50:14;78200.31;;;16.08;100.00
64243;BME280;50573;51.512;5.386;2023-05-07T22:00:19;78190.28;;;16.04;100.00
64243;BME280;50573;51.512;5.386;2023-05-07T22:10:23;78180.88;;;15.91;100.00
64243;BME280;50573;51.512;5.386;2023-05-07T22:20:27;78180.88;;;15.91;100.00
64243;BME280;50573;51.512;5.386;2023-05-07T22:30:30;78178.56;;;15.89;100.00
64243;BME280;50573;51.512;5.386;2023-05-07T22:40:34;78176.28;;;15.87;100.00
64243;BME280;50573;51.512;5.386;2023-05-07T22:50:38;78171.72;;;15.83;100.00
64243;BME280;50573;51.512;5.386;2023-05-07T23:00:42;78163.00;;;15.73;100.00
64243;BME280;50573;51.512;5.386;2023-05-07T23:10:45;78149.53;;;15.66;100.00
64243;BME280;50573;51.512;5.386;2023-05-07T23:20:50;78149.53;;;15.66;100.00
64243;BME280;50573;51.512;5.386;2023-05-07T23:30:53;78151.22;;;15.68;100.00
64243;BME280;50573;51.512;5.386;2023-05-07T23:40:57;78139.34;;;15.60;100.00
64243;BME280;50573;51.512;5.386;2023-05-07T23:51:01;78141.25;;;15.54;100.00
